Impacts TAF Board
For situational awareness. Not to be used for flight planning purposes.
IDs:

KCSM - Clinton/Sherman Arpt, OK, US

Issued at 1720 UTC 21 May 2022
Updated at 2126 UTC 21 May 2022
Potential Impact None Slight Moderate High
Time<<22/22Z 22/23Z 23/00Z 23/01Z 23/02Z 23/03Z 23/04Z 23/05Z 23/06Z 23/07Z 23/08Z 23/09Z 23/10Z
Type
VIS
CIG
Cover
FltCat
WX
WDir
WSpd
WGst
WSHgt
WSDir
WSSpd
R17/35
XWnd 0 0 0 0 0 0 0 0 0 0 0 0 0
HWnd 0 0 0 0 0 0 0 0 0 0 0 0 0
Raw TAF
KCSM 211720Z 2118/2218 02021G30KT P6SM SCT050
  FM220200 03007KT P6SM SKC
  FM221500 06012KT P6SM FEW250


METAR Board
Radar Display
Forecast Discussion
For situational awareness. Not to be used for flight planning purposes.